Time;durP1;ratioP1;P1;durP2;ratioP2;P2;SDS_P1;SDS_P2;PMS_P1;PMS_P2;Temp;Humidity;BMP_temperature;BMP_pressure;BME280_temperature;BME280_humidity;BME280_pressure;Samples;Min_cycle;Max_cycle;Signal;HPM_P1;HPM_P2
2024/04/12 00:01:27;;;;;;;7.00;2.85;;;3.70;99.90;;;;;;8415770;27;20002;-82
2024/04/12 00:05:34;;;;;;;6.45;3.08;;;3.60;99.90;;;;;;8422760;27;20033;-82
2024/04/12 00:09:43;;;;;;;6.35;3.25;;;3.60;99.90;;;;;;8541617;27;20019;-82
2024/04/12 00:14:19;;;;;;;6.90;3.47;;;3.60;99.90;;;;;;8588106;27;20276;-82
2024/04/12 00:18:46;;;;;;;7.18;3.50;;;3.60;99.90;;;;;;8619449;27;20008;-82
2024/04/12 00:23:02;;;;;;;6.15;3.28;;;3.60;99.90;;;;;;8640529;27;20074;-83
2024/04/12 00:27:47;;;;;;;6.10;3.67;;;3.50;99.90;;;;;;8590033;27;20014;-82
2024/04/12 00:32:13;;;;;;;6.00;3.53;;;3.40;99.90;;;;;;8604439;27;20004;-82
2024/04/12 00:41:36;;;;;;;8.45;3.88;;;3.20;99.90;;;;;;8622561;27;20075;-82
2024/04/12 00:46:04;;;;;;;8.00;4.20;;;3.10;99.90;;;;;;8577185;27;20000;-83
2024/04/12 00:56:12;;;;;;;5.90;3.38;;;3.00;99.90;;;;;;8508558;27;20003;-82
2024/04/12 01:00:19;;;;;;;5.35;3.40;;;2.80;99.90;;;;;;8430216;27;20088;-82
2024/04/12 01:05:19;;;;;;;6.85;3.58;;;2.80;99.90;;;;;;8624877;27;20039;-83
2024/04/12 01:09:22;;;;;;;6.13;3.70;;;2.80;99.90;;;;;;8410407;28;20082;-82
2024/04/12 01:13:28;;;;;;;7.50;3.40;;;2.70;99.90;;;;;;8443996;27;20020;-81
2024/04/12 01:17:32;;;;;;;7.03;3.67;;;2.80;99.90;;;;;;8467394;27;19998;-82
2024/04/12 01:21:33;;;;;;;6.70;4.28;;;2.80;99.90;;;;;;8599566;27;20015;-83
2024/04/12 01:25:47;;;;;;;7.25;4.20;;;2.90;99.90;;;;;;8604036;27;20023;-82
2024/04/12 01:29:50;;;;;;;8.02;4.65;;;2.90;99.90;;;;;;8590958;27;20056;-82
2024/04/12 01:33:51;;;;;;;6.30;3.63;;;2.90;99.90;;;;;;8614772;27;20349;-82
2024/04/12 01:37:52;;;;;;;7.70;3.97;;;2.80;99.90;;;;;;8629007;27;20011;-81
2024/04/12 01:41:54;;;;;;;7.18;4.13;;;2.80;99.90;;;;;;8636433;27;20004;-83
2024/04/12 01:45:55;;;;;;;6.28;3.53;;;2.70;99.90;;;;;;8598468;27;20007;-82
2024/04/12 01:49:55;;;;;;;7.10;3.42;;;2.70;99.90;;;;;;8595900;27;20015;-82
2024/04/12 01:54:04;;;;;;;6.55;3.67;;;2.60;99.90;;;;;;8581015;27;20365;-82
2024/04/12 01:58:05;;;;;;;8.13;3.70;;;2.60;99.90;;;;;;8620368;27;20133;-82
2024/04/12 02:02:06;;;;;;;5.10;3.13;;;2.60;99.90;;;;;;8615572;27;20000;-82
2024/04/12 02:06:08;;;;;;;5.40;3.53;;;2.50;99.90;;;;;;8607402;27;20361;-83
2024/04/12 02:10:11;;;;;;;6.82;3.55;;;2.40;99.90;;;;;;8591259;27;20008;-80
2024/04/12 02:14:12;;;;;;;6.50;3.97;;;2.30;99.90;;;;;;8613232;27;20014;-83
2024/04/12 02:18:14;;;;;;;5.35;3.95;;;2.20;99.90;;;;;;8600325;27;20453;-82
2024/04/12 02:22:14;;;;;;;6.68;3.03;;;2.20;99.90;;;;;;8601475;27;20022;-83
2024/04/12 02:26:15;;;;;;;8.82;3.67;;;2.40;99.90;;;;;;8593544;27;20004;-81
2024/04/12 02:30:17;;;;;;;6.72;3.53;;;2.20;99.90;;;;;;8637058;27;20532;-82
2024/04/12 02:34:18;;;;;;;6.30;3.67;;;2.10;99.90;;;;;;8598135;27;19999;-83
2024/04/12 02:38:22;;;;;;;8.07;3.25;;;2.10;99.90;;;;;;8602664;27;20416;-82
2024/04/12 02:42:25;;;;;;;5.45;3.38;;;2.10;99.90;;;;;;8592295;27;20720;-83
2024/04/12 02:46:26;;;;;;;6.75;3.33;;;2.00;99.90;;;;;;8599425;27;20001;-82
2024/04/12 02:50:27;;;;;;;6.22;3.42;;;1.90;99.90;;;;;;8616996;27;20002;-82
2024/04/12 02:54:29;;;;;;;6.70;3.83;;;2.00;99.90;;;;;;8600806;27;20063;-83
2024/04/12 02:58:40;;;;;;;6.28;3.17;;;1.90;99.90;;;;;;8642796;22;20008;-83
2024/04/12 03:02:44;;;;;;;9.25;4.00;;;2.00;99.90;;;;;;8640110;27;20051;-82
2024/04/12 03:06:45;;;;;;;5.60;3.47;;;1.90;99.90;;;;;;8624790;27;19996;-83
2024/04/12 03:10:46;;;;;;;6.95;3.92;;;2.20;99.90;;;;;;8616486;27;20004;-82
2024/04/12 03:15:04;;;;;;;7.78;3.80;;;2.00;99.90;;;;;;8592112;27;20430;-83
2024/04/12 03:19:07;;;;;;;8.23;4.10;;;1.90;99.90;;;;;;8581622;27;20430;-82
2024/04/12 03:23:11;;;;;;;6.80;3.83;;;1.90;99.90;;;;;;8577669;27;20022;-81
2024/04/12 03:28:13;;;;;;;;;;;;;;;;;;;;;
2024/04/12 03:32:32;;;;;;;5.60;3.63;;;1.90;99.90;;;;;;8601690;27;20032;-82
2024/04/12 03:40:45;;;;;;;6.47;3.60;;;1.80;99.90;;;;;;8600824;27;20506;-82
2024/04/12 03:45:04;;;;;;;7.97;4.18;;;1.70;99.90;;;;;;8578527;27;20713;-82
2024/04/12 03:49:05;;;;;;;7.28;3.75;;;1.80;99.90;;;;;;8613883;27;20004;-80
2024/04/12 03:53:14;;;;;;;7.55;3.85;;;1.70;99.90;;;;;;8576602;27;20071;-82
2024/04/12 03:57:15;;;;;;;6.50;3.78;;;1.70;99.90;;;;;;8566559;27;20014;-82
2024/04/12 04:01:16;;;;;;;5.45;3.25;;;1.60;99.90;;;;;;8558007;27;20078;-81
2024/04/12 04:05:17;;;;;;;6.15;3.83;;;1.60;99.90;;;;;;8563052;27;20013;-82
2024/04/12 04:09:19;;;;;;;5.60;3.80;;;1.50;99.90;;;;;;8583211;27;20028;-82
2024/04/12 04:13:27;;;;;;;8.32;3.53;;;1.40;99.90;;;;;;8562107;27;20000;-80
2024/04/12 04:17:30;;;;;;;7.55;3.95;;;1.30;99.90;;;;;;8567051;27;20093;-82
2024/04/12 04:21:33;;;;;;;8.20;3.88;;;1.30;99.90;;;;;;8563305;27;20008;-82
2024/04/12 04:25:33;;;;;;;7.70;3.88;;;1.30;99.90;;;;;;8567640;27;20008;-82
2024/04/12 04:29:35;;;;;;;7.15;4.07;;;1.40;99.90;;;;;;8605479;27;20136;-81
2024/04/12 04:33:38;;;;;;;8.55;4.55;;;1.50;99.90;;;;;;8602438;27;20018;-83
2024/04/12 04:41:55;;;;;;;7.22;4.20;;;1.40;99.90;;;;;;8608418;27;20079;-82
2024/04/12 04:45:59;;;;;;;7.72;3.67;;;1.50;99.90;;;;;;8588878;27;20015;-82
2024/04/12 04:50:00;;;;;;;6.95;3.85;;;1.50;99.90;;;;;;8592265;27;20275;-82
2024/04/12 04:54:00;;;;;;;6.82;3.67;;;1.50;99.90;;;;;;8589816;27;20015;-82
2024/04/12 04:58:01;;;;;;;5.93;3.25;;;1.50;99.90;;;;;;8583455;27;20007;-82
2024/04/12 05:02:01;;;;;;;8.40;4.22;;;1.50;99.90;;;;;;8584650;27;20004;-82
2024/04/12 05:06:06;;;;;;;8.73;3.67;;;1.60;99.90;;;;;;8595723;27;20003;-81
2024/04/12 05:10:14;;;;;;;10.43;4.38;;;1.70;99.90;;;;;;8623625;27;20008;-80
2024/04/12 05:14:41;;;;;;;6.53;3.83;;;1.90;99.90;;;;;;8600279;27;20011;-81
2024/04/12 05:18:36;;;;;;;;;;;1.90;99.90;;;;;;8617338;27;20560;-82
2024/04/12 05:22:37;;;;;;;6.88;4.03;;;2.00;99.90;;;;;;8591064;27;19928;-81
2024/04/12 05:26:41;;;;;;;8.75;4.68;;;2.20;99.90;;;;;;8593762;27;20469;-81
2024/04/12 05:30:42;;;;;;;8.10;3.85;;;2.30;99.90;;;;;;8587545;27;20011;-82
2024/04/12 05:34:43;;;;;;;8.13;4.45;;;2.60;99.90;;;;;;8622165;27;20018;-82
2024/04/12 05:38:45;;;;;;;7.43;4.65;;;2.70;99.90;;;;;;8593992;27;20020;-83
2024/04/12 05:42:46;;;;;;;9.63;5.35;;;2.90;99.90;;;;;;8589448;27;20011;-82
2024/04/12 05:46:46;;;;;;;9.32;5.70;;;3.20;99.90;;;;;;8622237;27;20341;-81
2024/04/12 05:50:49;;;;;;;9.65;5.13;;;3.30;99.90;;;;;;8590180;27;20018;-82
2024/04/12 05:54:50;;;;;;;11.02;5.00;;;3.60;99.90;;;;;;8620099;27;20053;-83
2024/04/12 05:58:52;;;;;;;10.00;6.03;;;3.70;99.90;;;;;;8601677;27;20015;-81
2024/04/12 06:02:52;;;;;;;15.38;6.78;;;4.10;99.90;;;;;;8589699;27;20465;-82
2024/04/12 06:06:54;;;;;;;8.65;5.15;;;4.60;99.90;;;;;;8580461;27;20047;-83
2024/04/12 06:10:55;;;;;;;10.45;5.78;;;4.80;99.90;;;;;;8587885;27;19999;-82
2024/04/12 06:14:58;;;;;;;11.15;6.57;;;5.00;99.90;;;;;;8584940;27;21021;-82
2024/04/12 06:19:02;;;;;;;8.85;5.53;;;5.40;99.90;;;;;;8580288;27;20036;-81
2024/04/12 06:23:12;;;;;;;11.35;6.70;;;6.10;99.90;;;;;;8597642;27;20370;-84
2024/04/12 06:27:14;;;;;;;8.65;5.03;;;6.20;99.90;;;;;;8599978;27;20000;-84
2024/04/12 06:31:20;;;;;;;13.48;5.70;;;6.30;99.90;;;;;;8602199;27;20004;-83
2024/04/12 06:35:20;;;;;;;11.93;6.80;;;6.60;99.90;;;;;;8572464;27;20484;-83
2024/04/12 06:39:26;;;;;;;12.00;6.55;;;6.70;99.90;;;;;;8589669;27;20004;-83
2024/04/12 06:43:26;;;;;;;11.15;6.50;;;6.90;99.90;;;;;;8603773;27;20034;-83
2024/04/12 06:47:27;;;;;;;11.20;6.82;;;7.00;99.90;;;;;;8615794;27;20390;-83
2024/04/12 06:51:28;;;;;;;11.77;7.20;;;7.40;99.90;;;;;;8611730;27;20011;-83
2024/04/12 06:55:30;;;;;;;13.32;8.07;;;8.10;99.90;;;;;;8596523;27;20602;-82
2024/04/12 06:59:35;;;;;;;13.50;7.35;;;8.70;99.90;;;;;;8580845;27;19999;-83
2024/04/12 07:03:36;;;;;;;13.75;8.02;;;9.20;99.90;;;;;;8582608;27;20003;-83
2024/04/12 07:07:37;;;;;;;16.27;8.15;;;10.10;99.90;;;;;;8591944;27;20000;-83
2024/04/12 07:11:39;;;;;;;15.05;8.73;;;10.70;99.90;;;;;;8593305;27;20000;-84
2024/04/12 07:15:40;;;;;;;16.33;8.55;;;11.10;99.90;;;;;;8594337;27;20004;-83
2024/04/12 07:19:49;;;;;;;13.93;7.40;;;11.40;99.90;;;;;;8589436;27;20075;-84
2024/04/12 07:23:49;;;;;;;11.48;7.22;;;11.70;99.90;;;;;;8615963;27;20008;-84
2024/04/12 07:27:53;;;;;;;14.23;8.23;;;13.30;99.90;;;;;;8591520;27;20026;-84
2024/04/12 07:31:54;;;;;;;12.63;7.55;;;13.40;99.90;;;;;;8586788;27;20000;-83
2024/04/12 07:36:10;;;;;;;10.30;7.40;;;14.20;99.90;;;;;;8614286;27;20014;-84
2024/04/12 08:01:25;;;;;;;;;;;;;;;;;;;;;
2024/04/12 08:06:03;;;;;;;11.50;7.70;;;17.70;99.90;;;;;;8408198;28;20029;-84
2024/04/12 08:10:56;;;;;;;;;;;;;;;;;;;;;
2024/04/12 08:14:56;;;;;;;14.00;8.77;;;16.70;99.90;;;;;;8473686;27;20010;-84
2024/04/12 08:19:46;;;;;;;11.93;8.85;;;16.50;99.90;;;;;;8491258;27;20005;-84
2024/04/12 08:28:16;;;;;;;13.40;8.00;;;16.90;99.90;;;;;;8567680;27;20015;-86
2024/04/12 08:32:41;;;;;;;;;;;;;;;;;;;;;
2024/04/12 08:36:55;;;;;;;10.43;7.25;;;17.60;99.90;;;;;;8644161;27;20418;-84
2024/04/12 08:41:31;;;;;;;12.68;8.10;;;17.90;99.90;;;;;;8637807;27;20007;-85
2024/04/12 08:46:33;;;;;;;15.32;8.18;;;18.00;99.90;;;;;;8621980;27;20035;-84
2024/04/12 08:50:31;;;;;;;12.68;7.60;;;18.60;99.90;;;;;;8648686;27;20452;-86
2024/04/12 08:59:27;;;;;;;;;;;;;;;;;;;;;
2024/04/12 09:04:25;;;;;;;10.85;7.13;;;19.70;99.90;;;;;;8658069;27;20039;-88
2024/04/12 09:08:57;;;;;;;13.32;7.10;;;19.70;99.90;;;;;;8578195;27;20052;-85
2024/04/12 09:17:41;;;;;;;9.25;6.70;;;19.70;99.90;;;;;;8656982;27;20028;-84
2024/04/12 09:22:08;;;;;;;;;;;;;;;;;;;;;
2024/04/12 09:26:24;;;;;;;11.73;7.20;;;20.00;99.90;;;;;;8669864;27;20050;-85
2024/04/12 09:34:58;;;;;;;10.55;6.85;;;20.10;99.90;;;;;;8656378;27;20098;-86
2024/04/12 09:38:59;;;;;;;7.47;6.00;;;20.20;99.90;;;;;;8637831;27;20014;-86
2024/04/12 09:43:36;;;;;;;10.50;5.75;;;20.40;99.90;;;;;;8638319;27;20116;-85
2024/04/12 10:44:16;;;;;;;6.88;5.10;;;23.40;99.90;;;;;;9515751;22;20003;-86
2024/04/12 10:49:03;;;;;;;;;;;;;;;;;;;;;
2024/04/12 10:59:34;;;;;;;7.07;5.00;;;23.70;98.80;;;;;;8630296;22;20005;-85
2024/04/12 11:03:38;;;;;;;6.50;5.22;;;23.00;97.50;;;;;;8303915;28;20015;-85
2024/04/12 11:07:39;;;;;;;8.13;5.75;;;24.10;98.40;;;;;;8303809;28;20019;-86
2024/04/12 11:12:09;;;;;;;7.40;5.55;;;24.90;93.90;;;;;;8310280;28;20000;-86
2024/04/12 11:34:56;;;;;;;6.72;4.57;;;23.60;98.00;;;;;;8562829;27;20108;-88
2024/04/12 11:39:50;;;;;;;6.35;4.40;;;25.80;97.80;;;;;;8554587;27;20012;-88
2024/04/12 11:44:19;;;;;;;7.25;4.28;;;25.60;94.00;;;;;;8563763;27;20005;-87
2024/04/12 11:49:07;;;;;;;6.97;4.43;;;27.20;93.40;;;;;;8502782;27;20011;-88
2024/04/12 11:58:08;;;;;;;5.47;4.20;;;27.80;88.00;;;;;;8555316;27;20012;-89
2024/04/12 12:02:52;;;;;;;4.65;3.63;;;27.90;88.30;;;;;;8559202;27;20020;-86
2024/04/12 12:20:59;;;;;;;;;;;25.80;91.50;;;;;;8796703;22;20007;-87
2024/04/12 12:34:27;;;;;;;5.70;4.40;;;26.50;85.60;;;;;;9165248;22;20012;-86
2024/04/12 12:38:41;;;;;;;4.10;3.50;;;26.80;88.40;;;;;;8550266;27;20004;-87
2024/04/12 13:01:34;;;;;;;;;;;23.60;92.70;;;;;;8760224;22;20364;-86
2024/04/12 13:13:59;;;;;;;8.05;4.15;;;27.90;85.80;;;;;;8905909;22;20011;-86
2024/04/12 13:33:33;;;;;;;7.45;3.60;;;27.20;83.10;;;;;;8659474;27;20065;-86
2024/04/12 13:51:10;;;;;;;;;;;;;;;;;;;;;
2024/04/12 13:55:56;;;;;;;;;;;;;;;;;;;;;
2024/04/12 14:00:09;;;;;;;5.53;4.13;;;27.50;82.30;;;;;;8548450;27;20018;-87
2024/04/12 14:05:01;;;;;;;3.80;2.80;;;29.90;72.40;;;;;;8555359;27;20011;-88
2024/04/12 14:09:37;;;;;;;3.78;3.30;;;32.10;65.00;;;;;;8312009;28;20384;-88
2024/04/12 14:14:04;;;;;;;3.20;2.63;;;31.30;62.10;;;;;;8226168;28;20020;-89
2024/04/12 14:22:41;;;;;;;2.65;1.80;;;33.80;54.40;;;;;;8606444;22;20480;-86
2024/04/12 14:26:41;;;;;;;3.63;1.90;;;33.80;52.80;;;;;;8587284;27;20005;-86
2024/04/12 14:30:42;;;;;;;2.40;2.20;;;33.90;52.20;;;;;;8572118;27;20000;-87
2024/04/12 14:34:44;;;;;;;3.70;2.03;;;34.50;53.40;;;;;;8575305;27;20004;-87
2024/04/12 14:38:48;;;;;;;4.32;2.38;;;34.60;48.80;;;;;;8565010;27;20083;-87
2024/04/12 14:42:51;;;;;;;3.55;2.65;;;34.30;50.00;;;;;;8564066;27;20008;-86
2024/04/12 14:46:54;;;;;;;3.35;2.50;;;34.00;46.90;;;;;;8554032;27;20013;-86
2024/04/12 14:50:54;;;;;;;3.05;2.67;;;30.00;56.90;;;;;;8561220;27;20358;-86
2024/04/12 14:54:56;;;;;;;14.32;6.47;;;30.30;57.60;;;;;;8621241;27;20018;-86
2024/04/12 14:58:57;;;;;;;3.42;2.50;;;31.60;53.70;;;;;;8607269;27;20011;-86
2024/04/12 15:54:25;;;;;;;3.33;2.40;;;25.30;64.30;;;;;;8567801;27;20466;-85
2024/04/12 16:11:24;;;;;;;3.13;1.98;;;22.50;69.60;;;;;;8572708;27;20023;-86
2024/04/12 16:15:24;;;;;;;13.00;6.65;;;21.70;79.70;;;;;;8568174;27;20008;-86
2024/04/12 16:19:25;;;;;;;5.50;3.55;;;21.10;79.70;;;;;;8568870;27;20592;-87
2024/04/12 16:23:27;;;;;;;4.97;3.17;;;20.60;77.40;;;;;;8614300;27;20003;-87
2024/04/12 16:27:27;;;;;;;5.07;2.75;;;20.10;88.30;;;;;;8619008;27;20027;-86
2024/04/12 16:31:28;;;;;;;6.55;2.38;;;19.80;90.80;;;;;;8594478;27;20080;-87
2024/04/12 16:35:29;;;;;;;4.03;2.13;;;19.70;88.80;;;;;;8586456;27;20004;-87
2024/04/12 16:39:30;;;;;;;2.00;1.63;;;19.40;91.20;;;;;;8583907;27;20019;-86
2024/04/12 16:43:32;;;;;;;5.18;1.95;;;19.20;93.10;;;;;;8619540;27;20004;-87
2024/04/12 16:47:33;;;;;;;3.58;2.20;;;18.90;91.40;;;;;;8605246;27;20003;-87
2024/04/12 16:51:33;;;;;;;3.08;2.50;;;18.90;91.80;;;;;;8558244;27;20372;-86
2024/04/12 16:55:34;;;;;;;2.40;1.80;;;18.90;93.20;;;;;;8618198;27;20015;-85
2024/04/12 16:59:34;;;;;;;5.18;2.13;;;18.70;93.20;;;;;;8586104;27;20003;-87
2024/04/12 17:03:35;;;;;;;3.72;2.40;;;18.50;93.20;;;;;;8592015;27;20020;-86
2024/04/12 17:07:38;;;;;;;4.57;2.08;;;18.50;94.80;;;;;;8590038;27;20018;-85
2024/04/12 17:11:39;;;;;;;3.65;2.58;;;18.20;95.00;;;;;;8594215;27;20011;-85
2024/04/12 17:15:40;;;;;;;4.85;2.78;;;17.90;92.50;;;;;;8643671;27;20035;-85
2024/04/12 17:19:41;;;;;;;4.63;2.97;;;17.80;94.60;;;;;;8587579;27;20334;-87
2024/04/12 17:23:42;;;;;;;3.17;2.20;;;17.50;95.50;;;;;;8572271;27;20755;-85
2024/04/12 17:27:43;;;;;;;2.58;1.70;;;17.10;96.70;;;;;;8621898;27;20014;-85
2024/04/12 17:31:44;;;;;;;3.33;1.60;;;17.00;98.20;;;;;;8600201;27;20000;-85
2024/04/12 17:35:45;;;;;;;3.15;1.85;;;16.90;98.50;;;;;;8600222;27;20003;-87
2024/04/12 17:39:45;;;;;;;3.05;2.05;;;16.40;99.90;;;;;;8621348;27;20079;-85
2024/04/12 17:43:46;;;;;;;4.38;2.38;;;16.50;99.90;;;;;;8614780;27;20468;-84
2024/04/12 17:47:47;;;;;;;3.72;1.95;;;16.30;99.90;;;;;;8595999;27;20083;-84
2024/04/12 17:51:47;;;;;;;2.33;1.70;;;16.10;99.90;;;;;;8585927;27;20008;-84
2024/04/12 17:55:49;;;;;;;3.95;2.20;;;15.90;99.90;;;;;;8593713;27;20003;-85
2024/04/12 17:59:50;;;;;;;7.15;3.60;;;15.60;99.90;;;;;;8613608;27;20696;-85
2024/04/12 18:03:51;;;;;;;6.05;2.97;;;15.20;99.90;;;;;;8594662;27;20004;-86
2024/04/12 18:07:53;;;;;;;10.23;3.33;;;14.90;99.90;;;;;;8583661;27;20022;-87
2024/04/12 18:12:00;;;;;;;5.20;2.65;;;14.60;99.90;;;;;;8559934;27;20097;-86
2024/04/12 18:16:01;;;;;;;4.10;2.55;;;14.40;99.90;;;;;;8578960;27;20474;-86
2024/04/12 18:20:02;;;;;;;3.60;2.40;;;14.20;99.90;;;;;;8593708;27;20470;-86
2024/04/12 18:24:03;;;;;;;7.47;2.40;;;14.00;99.90;;;;;;8586093;27;20473;-86
2024/04/12 18:28:06;;;;;;;3.85;2.47;;;13.80;99.90;;;;;;8638647;27;20011;-86
2024/04/12 18:32:08;;;;;;;4.53;2.50;;;13.50;99.90;;;;;;8632676;27;20082;-85
2024/04/12 18:36:12;;;;;;;6.75;3.33;;;13.30;99.90;;;;;;8600162;27;20016;-86
2024/04/12 18:48:52;;;;;;;7.50;3.15;;;13.10;99.90;;;;;;8626309;27;20030;-86
2024/04/12 18:52:52;;;;;;;7.47;4.15;;;12.80;99.90;;;;;;8574890;27;20016;-86
2024/04/12 18:56:53;;;;;;;6.00;4.00;;;12.60;99.90;;;;;;8612192;27;20470;-85
2024/04/12 19:00:54;;;;;;;7.38;4.13;;;12.50;99.90;;;;;;8593346;27;20018;-85
2024/04/12 19:04:54;;;;;;;5.90;2.67;;;12.40;99.90;;;;;;8644038;27;20131;-86
2024/04/12 19:08:56;;;;;;;4.53;2.70;;;12.60;99.90;;;;;;8605910;27;20087;-85
2024/04/12 19:12:57;;;;;;;4.07;2.50;;;12.40;99.90;;;;;;8600997;27;20016;-85
2024/04/12 19:16:58;;;;;;;4.20;2.65;;;12.20;99.90;;;;;;8601119;27;20060;-86
2024/04/12 19:21:03;;;;;;;4.43;2.70;;;11.90;99.90;;;;;;8611215;27;20014;-86
2024/04/12 19:25:04;;;;;;;6.72;2.90;;;11.70;99.90;;;;;;8623145;27;20468;-86
2024/04/12 19:29:05;;;;;;;5.13;3.05;;;11.50;99.90;;;;;;8644264;27;20009;-87
2024/04/12 19:33:06;;;;;;;5.97;3.05;;;11.50;99.90;;;;;;8594589;27;20101;-87
2024/04/12 19:37:06;;;;;;;7.28;3.15;;;11.40;99.90;;;;;;8592138;27;20279;-87
2024/04/12 19:41:07;;;;;;;5.25;3.08;;;11.30;99.90;;;;;;8581772;27;20796;-87
2024/04/12 19:45:08;;;;;;;5.18;2.90;;;11.30;99.90;;;;;;8603124;27;20017;-87
2024/04/12 19:49:09;;;;;;;5.28;3.40;;;11.40;99.90;;;;;;8594693;27;20047;-87
2024/04/12 19:53:11;;;;;;;6.05;3.75;;;11.30;99.90;;;;;;8588484;27;20029;-87
2024/04/12 19:57:12;;;;;;;7.32;3.65;;;11.20;99.90;;;;;;8577146;27;20019;-87
2024/04/12 20:01:12;;;;;;;6.55;3.40;;;10.90;99.90;;;;;;8611272;27;21052;-87
2024/04/12 20:05:13;;;;;;;6.43;4.20;;;10.50;99.90;;;;;;8623714;27;19999;-87
2024/04/12 20:09:14;;;;;;;7.32;4.78;;;10.40;99.90;;;;;;8581465;27;20012;-87
2024/04/12 20:13:14;;;;;;;8.02;4.05;;;10.50;99.90;;;;;;8571331;27;20003;-86
2024/04/12 20:17:21;;;;;;;8.15;4.07;;;10.50;99.90;;;;;;8571679;27;20011;-86
2024/04/12 20:21:21;;;;;;;6.13;3.80;;;10.30;99.90;;;;;;8569129;27;20014;-86
2024/04/12 20:25:25;;;;;;;5.95;3.67;;;10.10;99.90;;;;;;8602629;27;20044;-86
2024/04/12 20:29:27;;;;;;;5.60;3.45;;;10.00;99.90;;;;;;8581312;22;20008;-86
2024/04/12 20:33:55;;;;;;;6.20;3.92;;;9.80;99.90;;;;;;8576521;27;20005;-86
2024/04/12 20:37:50;;;;;;;5.90;3.75;;;9.50;99.90;;;;;;8609781;22;20200;-86
2024/04/12 20:41:55;;;;;;;6.28;4.20;;;9.50;99.90;;;;;;8581348;27;20040;-85
2024/04/12 20:45:57;;;;;;;8.77;4.68;;;9.20;99.90;;;;;;8588335;27;20000;-85
2024/04/12 20:50:45;;;;;;;4.97;3.55;;;9.50;99.90;;;;;;8548350;27;20012;-85
2024/04/12 20:55:47;;;;;;;6.18;3.55;;;9.40;99.90;;;;;;8379507;27;20032;-85
2024/04/12 20:59:23;;;;;;;7.18;4.43;;;9.50;99.90;;;;;;8563289;27;20023;-86
2024/04/12 21:04:09;;;;;;;;;;;;;;;;;;;;;
2024/04/12 21:09:05;;;;;;;8.63;3.95;;;9.40;99.90;;;;;;8593613;27;20934;-86
2024/04/12 21:13:18;;;;;;;7.97;3.80;;;9.20;99.90;;;;;;8548585;27;20260;-86
2024/04/12 21:17:47;;;;;;;10.20;3.80;;;9.00;99.90;;;;;;8540534;27;20008;-86
2024/04/12 21:21:51;;;;;;;9.35;3.70;;;9.00;99.90;;;;;;8549913;27;20000;-86
2024/04/12 21:26:10;;;;;;;8.43;3.38;;;8.80;99.90;;;;;;8553909;27;20029;-85
2024/04/12 21:35:14;;;;;;;17.33;4.35;;;8.50;99.90;;;;;;8568654;27;20003;-85
2024/04/12 21:39:31;;;;;;;9.90;3.95;;;8.20;99.90;;;;;;8518988;27;20001;-86
2024/04/12 21:43:33;;;;;;;12.85;4.63;;;8.40;99.90;;;;;;8484823;27;20009;-84
2024/04/12 21:48:10;;;;;;;;;;;;;;;;;;;;;
2024/04/12 21:52:14;;;;;;;9.23;4.05;;;8.40;99.90;;;;;;8207598;28;20027;-85
2024/04/12 21:56:19;;;;;;;7.10;3.85;;;8.40;99.90;;;;;;8385429;27;20036;-85
2024/04/12 22:00:20;;;;;;;9.85;4.72;;;8.50;99.90;;;;;;8505168;27;20558;-85
2024/04/12 22:04:27;;;;;;;10.27;4.68;;;8.20;99.90;;;;;;8488663;27;20011;-84
2024/04/12 22:08:32;;;;;;;6.05;4.22;;;8.10;99.90;;;;;;8494899;27;20037;-85
2024/04/12 22:13:28;;;;;;;10.10;4.95;;;8.10;99.90;;;;;;8507267;27;20009;-85
2024/04/12 22:17:38;;;;;;;11.13;5.03;;;8.20;99.90;;;;;;8528103;27;20054;-86
2024/04/12 22:21:39;;;;;;;9.65;4.68;;;8.10;99.90;;;;;;8510955;27;20001;-85
2024/04/12 22:25:40;;;;;;;7.65;4.65;;;7.90;99.90;;;;;;8496447;27;20002;-85
2024/04/12 22:39:17;;;;;;;13.27;4.50;;;7.40;99.90;;;;;;8516651;27;20004;-85
2024/04/12 22:47:56;;;;;;;13.48;5.25;;;7.30;99.90;;;;;;8467305;27;20001;-85
2024/04/12 22:52:01;;;;;;;11.00;4.57;;;7.20;99.90;;;;;;8466885;27;20002;-85
2024/04/12 22:56:02;;;;;;;9.27;4.22;;;7.20;99.90;;;;;;8450424;27;20257;-84
2024/04/12 23:00:03;;;;;;;6.60;4.07;;;7.30;99.90;;;;;;8552638;27;20024;-85
2024/04/12 23:04:14;;;;;;;6.50;3.95;;;7.20;99.90;;;;;;8563980;27;20011;-85
2024/04/12 23:08:23;;;;;;;9.70;4.25;;;7.10;99.90;;;;;;8555792;27;20012;-86
2024/04/12 23:12:27;;;;;;;11.73;4.57;;;6.90;99.90;;;;;;8552221;27;20624;-85
2024/04/12 23:16:29;;;;;;;8.40;4.40;;;6.80;99.90;;;;;;8545534;27;20053;-85
2024/04/12 23:26:18;;;;;;;7.57;4.22;;;6.60;99.90;;;;;;8774180;22;20007;-85
2024/04/12 23:30:19;;;;;;;;;;;6.80;99.90;;;;;;8554807;27;20004;-84
2024/04/12 23:34:20;;;;;;;;;;;6.60;99.90;;;;;;8592700;27;19927;-85
2024/04/12 23:38:28;;;;;;;7.97;3.53;;;6.60;99.90;;;;;;8579962;27;19936;-85
2024/04/12 23:42:40;;;;;;;5.88;3.58;;;6.60;99.90;;;;;;8592201;27;20004;-85
2024/04/12 23:50:51;;;;;;;6.35;3.50;;;6.40;99.90;;;;;;8623260;22;20091;-83
2024/04/12 23:54:52;;;;;;;9.27;4.70;;;6.50;99.90;;;;;;8593907;27;20008;-83
